sensor_id;sensor_type;location;lat;lon;timestamp;pressure;altitude;pressure_sealevel;temperature;humidity
21644;BME280;10983;51.982;9.226;2022-08-11T00:02:27;101144.22;;;13.86;100.00
21644;BME280;10983;51.982;9.226;2022-08-11T00:04:56;101152.78;;;13.76;100.00
21644;BME280;10983;51.982;9.226;2022-08-11T00:07:28;101141.34;;;13.69;100.00
21644;BME280;10983;51.982;9.226;2022-08-11T00:10:01;101132.38;;;13.93;100.00
21644;BME280;10983;51.982;9.226;2022-08-11T00:12:28;101127.78;;;14.00;100.00
21644;BME280;10983;51.982;9.226;2022-08-11T00:14:59;101124.81;;;13.90;100.00
21644;BME280;10983;51.982;9.226;2022-08-11T00:17:31;101127.72;;;13.89;100.00
21644;BME280;10983;51.982;9.226;2022-08-11T00:20:04;101139.53;;;13.81;100.00
21644;BME280;10983;51.982;9.226;2022-08-11T00:22:44;101136.66;;;13.83;100.00
21644;BME280;10983;51.982;9.226;2022-08-11T00:25:16;101135.09;;;13.75;100.00
21644;BME280;10983;51.982;9.226;2022-08-11T00:27:47;101134.53;;;13.73;100.00
21644;BME280;10983;51.982;9.226;2022-08-11T00:30:16;101122.56;;;13.58;100.00
21644;BME280;10983;51.982;9.226;2022-08-11T00:32:54;101125.47;;;13.39;100.00
21644;BME280;10983;51.982;9.226;2022-08-11T00:35:27;101136.09;;;13.27;100.00
21644;BME280;10983;51.982;9.226;2022-08-11T00:38:22;101121.53;;;13.23;100.00
21644;BME280;10983;51.982;9.226;2022-08-11T00:40:57;101119.16;;;13.15;100.00
21644;BME280;10983;51.982;9.226;2022-08-11T00:43:38;101110.09;;;13.34;100.00
21644;BME280;10983;51.982;9.226;2022-08-11T00:46:16;101102.75;;;13.47;100.00
21644;BME280;10983;51.982;9.226;2022-08-11T00:48:58;101099.84;;;13.49;100.00
21644;BME280;10983;51.982;9.226;2022-08-11T00:51:42;101102.91;;;13.52;100.00
21644;BME280;10983;51.982;9.226;2022-08-11T00:54:51;101100.69;;;13.49;100.00
21644;BME280;10983;51.982;9.226;2022-08-11T01:00:21;101115.53;;;13.46;100.00
21644;BME280;10983;51.982;9.226;2022-08-11T01:03:13;101089.53;;;13.35;100.00
21644;BME280;10983;51.982;9.226;2022-08-11T01:06:02;101111.88;;;13.22;100.00
21644;BME280;10983;51.982;9.226;2022-08-11T01:08:52;101104.16;;;13.14;100.00
21644;BME280;10983;51.982;9.226;2022-08-11T01:11:52;101105.28;;;13.07;100.00
21644;BME280;10983;51.982;9.226;2022-08-11T01:14:43;101112.16;;;12.96;100.00
21644;BME280;10983;51.982;9.226;2022-08-11T01:27:03;101081.41;;;12.70;100.00
21644;BME280;10983;51.982;9.226;2022-08-11T01:30:16;101087.09;;;12.73;100.00
21644;BME280;10983;51.982;9.226;2022-08-11T01:39:31;101088.44;;;12.89;100.00
21644;BME280;10983;51.982;9.226;2022-08-11T01:45:39;101084.69;;;12.65;100.00
21644;BME280;10983;51.982;9.226;2022-08-11T01:48:18;101072.53;;;12.51;100.00
21644;BME280;10983;51.982;9.226;2022-08-11T01:51:00;101070.88;;;12.50;100.00
21644;BME280;10983;51.982;9.226;2022-08-11T01:53:41;101068.38;;;12.55;100.00
21644;BME280;10983;51.982;9.226;2022-08-11T01:56:25;101067.31;;;12.63;100.00
21644;BME280;10983;51.982;9.226;2022-08-11T01:59:01;101075.72;;;12.60;100.00
21644;BME280;10983;51.982;9.226;2022-08-11T02:01:44;101069.66;;;12.71;100.00
21644;BME280;10983;51.982;9.226;2022-08-11T02:04:24;101073.34;;;12.76;100.00
21644;BME280;10983;51.982;9.226;2022-08-11T02:07:01;101082.53;;;12.56;100.00
21644;BME280;10983;51.982;9.226;2022-08-11T02:09:46;101085.88;;;12.27;100.00
21644;BME280;10983;51.982;9.226;2022-08-11T02:12:31;101080.00;;;12.43;100.00
21644;BME280;10983;51.982;9.226;2022-08-11T02:15:13;101062.00;;;12.32;100.00
21644;BME280;10983;51.982;9.226;2022-08-11T02:17:58;101081.41;;;12.45;100.00
21644;BME280;10983;51.982;9.226;2022-08-11T02:20:34;101075.47;;;12.43;100.00
21644;BME280;10983;51.982;9.226;2022-08-11T02:23:26;101084.72;;;12.41;100.00
21644;BME280;10983;51.982;9.226;2022-08-11T02:26:34;101085.09;;;12.44;100.00
21644;BME280;10983;51.982;9.226;2022-08-11T02:29:14;101085.56;;;12.41;100.00
21644;BME280;10983;51.982;9.226;2022-08-11T02:31:52;101089.47;;;12.39;100.00
21644;BME280;10983;51.982;9.226;2022-08-11T02:35:02;101092.75;;;12.34;100.00
21644;BME280;10983;51.982;9.226;2022-08-11T02:37:41;101096.53;;;12.27;100.00
21644;BME280;10983;51.982;9.226;2022-08-11T02:40:22;101093.88;;;12.27;100.00
21644;BME280;10983;51.982;9.226;2022-08-11T02:43:16;101095.38;;;12.17;100.00
21644;BME280;10983;51.982;9.226;2022-08-11T02:45:55;101091.63;;;12.24;100.00
21644;BME280;10983;51.982;9.226;2022-08-11T02:48:35;101096.41;;;12.16;100.00
21644;BME280;10983;51.982;9.226;2022-08-11T02:51:31;101092.47;;;12.18;100.00
21644;BME280;10983;51.982;9.226;2022-08-11T02:54:07;101091.50;;;12.13;100.00
21644;BME280;10983;51.982;9.226;2022-08-11T02:56:43;101089.97;;;11.99;100.00
21644;BME280;10983;51.982;9.226;2022-08-11T02:59:22;101092.25;;;11.89;100.00
21644;BME280;10983;51.982;9.226;2022-08-11T03:02:15;101094.13;;;11.88;100.00
21644;BME280;10983;51.982;9.226;2022-08-11T03:05:05;101094.81;;;11.77;100.00
21644;BME280;10983;51.982;9.226;2022-08-11T03:07:45;101094.44;;;11.68;100.00
21644;BME280;10983;51.982;9.226;2022-08-11T03:10:20;101085.03;;;11.59;100.00
21644;BME280;10983;51.982;9.226;2022-08-11T03:12:59;101080.91;;;11.69;100.00
21644;BME280;10983;51.982;9.226;2022-08-11T03:15:48;101090.88;;;11.80;100.00
21644;BME280;10983;51.982;9.226;2022-08-11T03:18:44;101090.88;;;11.80;100.00
21644;BME280;10983;51.982;9.226;2022-08-11T03:21:20;101084.56;;;11.75;100.00
21644;BME280;10983;51.982;9.226;2022-08-11T03:23:55;101096.66;;;11.71;100.00
21644;BME280;10983;51.982;9.226;2022-08-11T03:26:29;101092.31;;;11.76;100.00
21644;BME280;10983;51.982;9.226;2022-08-11T03:29:04;101087.47;;;11.67;100.00
21644;BME280;10983;51.982;9.226;2022-08-11T03:31:35;101089.19;;;11.48;100.00
21644;BME280;10983;51.982;9.226;2022-08-11T03:34:16;101088.91;;;11.63;100.00
21644;BME280;10983;51.982;9.226;2022-08-11T03:37:04;101095.06;;;11.70;100.00
21644;BME280;10983;51.982;9.226;2022-08-11T03:39:49;101095.09;;;11.57;100.00
21644;BME280;10983;51.982;9.226;2022-08-11T03:42:27;101098.41;;;11.52;100.00
21644;BME280;10983;51.982;9.226;2022-08-11T03:45:04;101104.28;;;11.67;100.00
21644;BME280;10983;51.982;9.226;2022-08-11T03:47:46;101097.88;;;11.75;100.00
21644;BME280;10983;51.982;9.226;2022-08-11T03:50:28;101103.78;;;11.83;100.00
21644;BME280;10983;51.982;9.226;2022-08-11T03:53:07;101098.88;;;11.80;100.00
21644;BME280;10983;51.982;9.226;2022-08-11T03:56:08;101105.50;;;11.71;100.00
21644;BME280;10983;51.982;9.226;2022-08-11T03:58:57;101107.16;;;11.66;100.00
21644;BME280;10983;51.982;9.226;2022-08-11T04:02:03;101116.41;;;11.57;100.00
21644;BME280;10983;51.982;9.226;2022-08-11T04:05:08;101123.34;;;11.64;100.00
21644;BME280;10983;51.982;9.226;2022-08-11T04:11:16;101122.41;;;11.39;100.00
21644;BME280;10983;51.982;9.226;2022-08-11T04:14:11;101118.88;;;11.45;100.00
21644;BME280;10983;51.982;9.226;2022-08-11T04:17:29;101122.75;;;11.56;100.00
21644;BME280;10983;51.982;9.226;2022-08-11T04:20:22;101118.00;;;11.64;100.00
21644;BME280;10983;51.982;9.226;2022-08-11T04:23:17;101115.47;;;11.82;100.00
21644;BME280;10983;51.982;9.226;2022-08-11T04:26:32;101118.09;;;11.88;100.00
21644;BME280;10983;51.982;9.226;2022-08-11T04:29:13;101126.09;;;11.88;100.00
21644;BME280;10983;51.982;9.226;2022-08-11T04:32:00;101121.72;;;12.00;100.00
21644;BME280;10983;51.982;9.226;2022-08-11T04:34:36;101130.25;;;12.15;100.00
21644;BME280;10983;51.982;9.226;2022-08-11T04:37:11;101129.38;;;12.21;100.00
21644;BME280;10983;51.982;9.226;2022-08-11T04:40:39;101139.03;;;12.22;100.00
21644;BME280;10983;51.982;9.226;2022-08-11T04:43:36;101139.75;;;12.35;100.00
21644;BME280;10983;51.982;9.226;2022-08-11T04:47:06;101139.88;;;12.47;100.00
21644;BME280;10983;51.982;9.226;2022-08-11T04:49:57;101138.03;;;12.72;100.00
21644;BME280;10983;51.982;9.226;2022-08-11T04:53:09;101144.56;;;13.00;100.00
21644;BME280;10983;51.982;9.226;2022-08-11T04:56:05;101146.91;;;13.14;100.00
21644;BME280;10983;51.982;9.226;2022-08-11T04:59:37;101150.13;;;13.23;100.00
21644;BME280;10983;51.982;9.226;2022-08-11T05:02:49;101158.72;;;13.60;100.00
21644;BME280;10983;51.982;9.226;2022-08-11T05:05:44;101175.09;;;14.00;100.00
21644;BME280;10983;51.982;9.226;2022-08-11T05:14:38;101219.38;;;14.83;100.00
21644;BME280;10983;51.982;9.226;2022-08-11T05:17:35;101242.88;;;15.11;100.00
21644;BME280;10983;51.982;9.226;2022-08-11T05:20:24;101269.72;;;15.33;100.00
21644;BME280;10983;51.982;9.226;2022-08-11T05:23:10;101293.97;;;15.50;100.00
21644;BME280;10983;51.982;9.226;2022-08-11T05:25:58;101307.16;;;15.63;100.00
21644;BME280;10983;51.982;9.226;2022-08-11T05:29:24;101327.91;;;15.78;100.00
21644;BME280;10983;51.982;9.226;2022-08-11T05:32:15;101330.94;;;15.93;100.00
21644;BME280;10983;51.982;9.226;2022-08-11T05:35:02;101344.19;;;16.11;100.00
21644;BME280;10983;51.982;9.226;2022-08-11T05:37:37;101351.19;;;16.24;100.00
21644;BME280;10983;51.982;9.226;2022-08-11T05:40:09;101355.28;;;16.37;100.00
21644;BME280;10983;51.982;9.226;2022-08-11T05:42:57;101360.28;;;16.45;100.00
21644;BME280;10983;51.982;9.226;2022-08-11T05:45:43;101360.78;;;16.70;100.00
21644;BME280;10983;51.982;9.226;2022-08-11T05:48:35;101375.44;;;16.90;100.00
21644;BME280;10983;51.982;9.226;2022-08-11T05:51:21;101383.78;;;17.05;100.00
21644;BME280;10983;51.982;9.226;2022-08-11T05:54:21;101397.00;;;17.35;100.00
21644;BME280;10983;51.982;9.226;2022-08-11T05:57:07;101402.66;;;17.49;100.00
21644;BME280;10983;51.982;9.226;2022-08-11T05:59:58;101418.50;;;17.62;100.00
21644;BME280;10983;51.982;9.226;2022-08-11T06:02:28;101427.63;;;17.78;100.00
21644;BME280;10983;51.982;9.226;2022-08-11T06:04:59;101447.19;;;17.90;100.00
21644;BME280;10983;51.982;9.226;2022-08-11T06:07:28;101460.25;;;18.14;100.00
21644;BME280;10983;51.982;9.226;2022-08-11T06:10:24;101493.06;;;18.44;100.00
21644;BME280;10983;51.982;9.226;2022-08-11T06:12:53;101515.28;;;18.34;100.00
21644;BME280;10983;51.982;9.226;2022-08-11T06:15:21;101510.38;;;18.48;100.00
21644;BME280;10983;51.982;9.226;2022-08-11T06:17:49;101519.34;;;18.53;100.00
21644;BME280;10983;51.982;9.226;2022-08-11T06:20:18;101525.16;;;18.83;100.00
21644;BME280;10983;51.982;9.226;2022-08-11T06:22:54;101534.75;;;18.95;100.00
21644;BME280;10983;51.982;9.226;2022-08-11T06:25:29;101535.66;;;19.17;100.00
21644;BME280;10983;51.982;9.226;2022-08-11T06:27:58;101563.31;;;19.50;100.00
21644;BME280;10983;51.982;9.226;2022-08-11T06:30:32;101578.47;;;19.56;100.00
21644;BME280;10983;51.982;9.226;2022-08-11T06:33:02;101581.84;;;19.89;100.00
21644;BME280;10983;51.982;9.226;2022-08-11T06:35:37;101586.03;;;20.02;100.00
21644;BME280;10983;51.982;9.226;2022-08-11T06:38:08;101618.38;;;20.18;100.00
21644;BME280;10983;51.982;9.226;2022-08-11T06:40:41;101646.66;;;20.37;100.00
21644;BME280;10983;51.982;9.226;2022-08-11T06:43:14;101641.72;;;20.60;100.00
21644;BME280;10983;51.982;9.226;2022-08-11T06:45:50;101592.09;;;20.76;100.00
21644;BME280;10983;51.982;9.226;2022-08-11T06:48:21;101504.84;;;20.90;100.00
21644;BME280;10983;51.982;9.226;2022-08-11T06:50:53;101448.84;;;20.91;100.00
21644;BME280;10983;51.982;9.226;2022-08-11T06:53:41;101404.81;;;21.10;100.00
21644;BME280;10983;51.982;9.226;2022-08-11T06:56:31;101381.28;;;21.26;100.00
21644;BME280;10983;51.982;9.226;2022-08-11T06:59:38;101359.69;;;21.50;100.00
21644;BME280;10983;51.982;9.226;2022-08-11T07:02:29;101340.22;;;21.58;100.00
21644;BME280;10983;51.982;9.226;2022-08-11T07:05:00;101323.34;;;22.01;100.00
21644;BME280;10983;51.982;9.226;2022-08-11T07:08:07;101311.88;;;22.39;100.00
21644;BME280;10983;51.982;9.226;2022-08-11T07:15:08;65387.91;;;-139.23;100.00
21644;BME280;10983;51.982;9.226;2022-08-11T07:18:48;101304.72;;;22.58;100.00
21644;BME280;10983;51.982;9.226;2022-08-11T07:21:34;100889.13;;;23.30;100.00
21644;BME280;10983;51.982;9.226;2022-08-11T07:24:33;100709.59;;;23.64;100.00
21644;BME280;10983;51.982;9.226;2022-08-11T07:27:31;100660.50;;;23.87;100.00
21644;BME280;10983;51.982;9.226;2022-08-11T07:30:20;100649.38;;;24.24;100.00
21644;BME280;10983;51.982;9.226;2022-08-11T07:32:50;100643.84;;;24.42;100.00
21644;BME280;10983;51.982;9.226;2022-08-11T07:35:23;100677.19;;;24.69;100.00
21644;BME280;10983;51.982;9.226;2022-08-11T07:37:56;100743.69;;;24.98;100.00
21644;BME280;10983;51.982;9.226;2022-08-11T07:40:30;100798.63;;;25.36;100.00
21644;BME280;10983;51.982;9.226;2022-08-11T07:42:59;100849.84;;;25.47;100.00
21644;BME280;10983;51.982;9.226;2022-08-11T07:45:28;100862.88;;;25.72;100.00
21644;BME280;10983;51.982;9.226;2022-08-11T07:48:14;100885.84;;;26.01;100.00
21644;BME280;10983;51.982;9.226;2022-08-11T07:51:01;100881.72;;;26.12;100.00
21644;BME280;10983;51.982;9.226;2022-08-11T07:53:47;100915.34;;;25.99;100.00
21644;BME280;10983;51.982;9.226;2022-08-11T07:56:34;100895.09;;;25.92;100.00
21644;BME280;10983;51.982;9.226;2022-08-11T07:59:24;100947.69;;;26.36;100.00
21644;BME280;10983;51.982;9.226;2022-08-11T08:02:30;100953.16;;;26.74;100.00
21644;BME280;10983;51.982;9.226;2022-08-11T08:05:17;100959.63;;;26.87;100.00
21644;BME280;10983;51.982;9.226;2022-08-11T08:08:03;100968.31;;;27.27;100.00
21644;BME280;10983;51.982;9.226;2022-08-11T08:10:49;100950.00;;;27.36;100.00
21644;BME280;10983;51.982;9.226;2022-08-11T08:13:37;100963.81;;;27.40;100.00
21644;BME280;10983;51.982;9.226;2022-08-11T08:16:23;100983.47;;;27.59;100.00
21644;BME280;10983;51.982;9.226;2022-08-11T08:19:10;100986.81;;;27.39;100.00
21644;BME280;10983;51.982;9.226;2022-08-11T08:21:39;100981.09;;;27.02;100.00
21644;BME280;10983;51.982;9.226;2022-08-11T08:24:11;100978.59;;;26.92;100.00
21644;BME280;10983;51.982;9.226;2022-08-11T08:26:39;100996.47;;;27.53;100.00
21644;BME280;10983;51.982;9.226;2022-08-11T08:29:30;101010.72;;;28.31;100.00
21644;BME280;10983;51.982;9.226;2022-08-11T08:32:17;101028.19;;;28.72;100.00
21644;BME280;10983;51.982;9.226;2022-08-11T08:34:48;101024.66;;;29.09;100.00
21644;BME280;10983;51.982;9.226;2022-08-11T08:37:19;101031.59;;;29.44;100.00
21644;BME280;10983;51.982;9.226;2022-08-11T08:40:08;101043.59;;;29.59;100.00
21644;BME280;10983;51.982;9.226;2022-08-11T08:42:40;101045.53;;;29.30;100.00
21644;BME280;10983;51.982;9.226;2022-08-11T08:45:12;101046.38;;;29.31;100.00
21644;BME280;10983;51.982;9.226;2022-08-11T08:47:44;101034.72;;;28.96;100.00
21644;BME280;10983;51.982;9.226;2022-08-11T08:50:20;101037.19;;;28.81;100.00
21644;BME280;10983;51.982;9.226;2022-08-11T08:52:56;101048.38;;;29.42;100.00
21644;BME280;10983;51.982;9.226;2022-08-11T08:55:27;101045.97;;;29.69;100.00
21644;BME280;10983;51.982;9.226;2022-08-11T08:57:57;101058.03;;;30.38;100.00
21644;BME280;10983;51.982;9.226;2022-08-11T09:00:38;101073.22;;;30.56;100.00
21644;BME280;10983;51.982;9.226;2022-08-11T09:03:06;101073.41;;;31.39;100.00
21644;BME280;10983;51.982;9.226;2022-08-11T09:05:55;101064.22;;;31.23;100.00
21644;BME280;10983;51.982;9.226;2022-08-11T09:08:23;101064.59;;;31.33;100.00
21644;BME280;10983;51.982;9.226;2022-08-11T09:10:54;101070.16;;;31.13;100.00
21644;BME280;10983;51.982;9.226;2022-08-11T09:13:39;101070.31;;;31.76;100.00
21644;BME280;10983;51.982;9.226;2022-08-11T09:16:11;101071.69;;;32.60;100.00
21644;BME280;10983;51.982;9.226;2022-08-11T09:18:40;101070.94;;;32.91;100.00
21644;BME280;10983;51.982;9.226;2022-08-11T09:21:10;101073.03;;;33.24;100.00
21644;BME280;10983;51.982;9.226;2022-08-11T09:23:59;101071.78;;;33.87;100.00
21644;BME280;10983;51.982;9.226;2022-08-11T09:26:52;101064.84;;;34.12;100.00
21644;BME280;10983;51.982;9.226;2022-08-11T09:29:28;101065.56;;;34.27;100.00
21644;BME280;10983;51.982;9.226;2022-08-11T09:31:58;101065.19;;;34.85;100.00
21644;BME280;10983;51.982;9.226;2022-08-11T09:34:26;101063.31;;;35.12;100.00
21644;BME280;10983;51.982;9.226;2022-08-11T09:36:55;101068.22;;;35.22;100.00
21644;BME280;10983;51.982;9.226;2022-08-11T09:40:04;101070.56;;;35.20;100.00
21644;BME280;10983;51.982;9.226;2022-08-11T09:42:53;101067.16;;;35.30;100.00
21644;BME280;10983;51.982;9.226;2022-08-11T09:45:38;101066.56;;;35.17;100.00
21644;BME280;10983;51.982;9.226;2022-08-11T09:48:07;101062.31;;;35.97;100.00
21644;BME280;10983;51.982;9.226;2022-08-11T09:50:35;101063.38;;;36.18;100.00
21644;BME280;10983;51.982;9.226;2022-08-11T09:53:03;101063.38;;;35.89;100.00
21644;BME280;10983;51.982;9.226;2022-08-11T09:55:52;101055.56;;;36.27;100.00
21644;BME280;10983;51.982;9.226;2022-08-11T09:58:20;101045.53;;;36.81;100.00
21644;BME280;10983;51.982;9.226;2022-08-11T10:01:08;101049.97;;;36.89;100.00
21644;BME280;10983;51.982;9.226;2022-08-11T10:03:58;101048.75;;;36.87;100.00
21644;BME280;10983;51.982;9.226;2022-08-11T10:06:28;101051.41;;;37.19;100.00
21644;BME280;10983;51.982;9.226;2022-08-11T10:09:21;101042.16;;;37.55;98.92
21644;BME280;10983;51.982;9.226;2022-08-11T10:11:52;101047.22;;;38.03;95.93
21644;BME280;10983;51.982;9.226;2022-08-11T10:14:25;101046.34;;;37.25;96.63
21644;BME280;10983;51.982;9.226;2022-08-11T10:17:11;101037.19;;;37.81;95.13
21644;BME280;10983;51.982;9.226;2022-08-11T10:19:42;101035.59;;;38.69;93.31
21644;BME280;10983;51.982;9.226;2022-08-11T10:22:31;101033.19;;;38.78;87.55
21644;BME280;10983;51.982;9.226;2022-08-11T10:25:17;101036.50;;;38.02;86.78
21644;BME280;10983;51.982;9.226;2022-08-11T10:28:06;101031.03;;;38.19;89.93
21644;BME280;10983;51.982;9.226;2022-08-11T10:30:54;101027.13;;;38.30;85.45
21644;BME280;10983;51.982;9.226;2022-08-11T10:33:44;101023.25;;;38.56;83.99
21644;BME280;10983;51.982;9.226;2022-08-11T10:36:30;101023.63;;;38.58;83.74
21644;BME280;10983;51.982;9.226;2022-08-11T10:38:59;101022.72;;;37.55;84.58
21644;BME280;10983;51.982;9.226;2022-08-11T10:41:28;101013.22;;;38.44;85.86
21644;BME280;10983;51.982;9.226;2022-08-11T10:44:36;101014.94;;;39.18;82.92
21644;BME280;10983;51.982;9.226;2022-08-11T10:47:04;100999.59;;;40.13;80.31
21644;BME280;10983;51.982;9.226;2022-08-11T10:49:51;101008.72;;;40.27;78.58
21644;BME280;10983;51.982;9.226;2022-08-11T10:52:35;101001.97;;;40.21;76.58
21644;BME280;10983;51.982;9.226;2022-08-11T10:55:22;100998.59;;;40.47;74.02
21644;BME280;10983;51.982;9.226;2022-08-11T10:58:07;100994.97;;;41.11;75.07
21644;BME280;10983;51.982;9.226;2022-08-11T11:00:53;100984.78;;;40.87;73.51
21644;BME280;10983;51.982;9.226;2022-08-11T11:03:24;100993.41;;;41.07;73.94
21644;BME280;10983;51.982;9.226;2022-08-11T11:05:55;100993.59;;;40.18;72.62
21644;BME280;10983;51.982;9.226;2022-08-11T11:08:47;100984.59;;;40.61;73.50
21644;BME280;10983;51.982;9.226;2022-08-11T11:11:31;100984.25;;;41.06;72.07
21644;BME280;10983;51.982;9.226;2022-08-11T11:14:18;100989.03;;;40.48;73.11
21644;BME280;10983;51.982;9.226;2022-08-11T11:17:22;100975.78;;;40.59;74.75
21644;BME280;10983;51.982;9.226;2022-08-11T11:20:13;100971.81;;;41.14;73.30
21644;BME280;10983;51.982;9.226;2022-08-11T11:23:05;100967.31;;;41.60;71.32
21644;BME280;10983;51.982;9.226;2022-08-11T11:26:02;100958.19;;;42.19;70.56
21644;BME280;10983;51.982;9.226;2022-08-11T11:31:44;100970.72;;;41.41;71.07
21644;BME280;10983;51.982;9.226;2022-08-11T11:34:19;100964.41;;;42.56;67.96
21644;BME280;10983;51.982;9.226;2022-08-11T11:36:54;100963.44;;;42.93;66.43
21644;BME280;10983;51.982;9.226;2022-08-11T11:39:24;100979.34;;;40.02;69.28
21644;BME280;10983;51.982;9.226;2022-08-11T11:41:58;100975.88;;;39.60;71.20
21644;BME280;10983;51.982;9.226;2022-08-11T11:44:27;100989.72;;;38.11;74.05
21644;BME280;10983;51.982;9.226;2022-08-11T11:46:57;100977.53;;;38.78;74.63
21644;BME280;10983;51.982;9.226;2022-08-11T11:49:27;100960.69;;;40.57;71.96
21644;BME280;10983;51.982;9.226;2022-08-11T11:51:58;100955.53;;;40.99;70.58
21644;BME280;10983;51.982;9.226;2022-08-11T11:54:28;100949.63;;;42.03;70.41
21644;BME280;10983;51.982;9.226;2022-08-11T11:56:58;100954.78;;;42.35;68.76
21644;BME280;10983;51.982;9.226;2022-08-11T11:59:47;100940.09;;;43.45;65.13
21644;BME280;10983;51.982;9.226;2022-08-11T12:02:34;100934.44;;;44.38;62.38
21644;BME280;10983;51.982;9.226;2022-08-11T12:05:02;100941.94;;;42.63;63.25
21644;BME280;10983;51.982;9.226;2022-08-11T12:07:30;100933.06;;;42.91;64.89
21644;BME280;10983;51.982;9.226;2022-08-11T12:10:30;100930.16;;;43.79;63.41
21644;BME280;10983;51.982;9.226;2022-08-11T12:13:00;100932.97;;;43.17;63.48
21644;BME280;10983;51.982;9.226;2022-08-11T12:15:46;100935.63;;;43.86;61.42
21644;BME280;10983;51.982;9.226;2022-08-11T12:18:35;100921.41;;;44.63;59.21
21644;BME280;10983;51.982;9.226;2022-08-11T12:21:03;100928.47;;;44.01;60.19
21644;BME280;10983;51.982;9.226;2022-08-11T12:23:33;100933.31;;;40.88;63.65
21644;BME280;10983;51.982;9.226;2022-08-11T12:26:19;100938.97;;;39.04;68.16
21644;BME280;10983;51.982;9.226;2022-08-11T12:29:09;100922.59;;;41.60;65.66
21644;BME280;10983;51.982;9.226;2022-08-11T12:31:39;100908.44;;;43.44;63.80
21644;BME280;10983;51.982;9.226;2022-08-11T12:34:08;100915.91;;;43.51;63.77
21644;BME280;10983;51.982;9.226;2022-08-11T12:36:38;100911.63;;;44.36;60.88
21644;BME280;10983;51.982;9.226;2022-08-11T12:39:08;100900.81;;;44.34;60.86
21644;BME280;10983;51.982;9.226;2022-08-11T12:41:56;100902.16;;;44.46;60.81
21644;BME280;10983;51.982;9.226;2022-08-11T12:44:43;100914.38;;;42.62;60.20
21644;BME280;10983;51.982;9.226;2022-08-11T12:47:29;100898.81;;;42.57;62.10
21644;BME280;10983;51.982;9.226;2022-08-11T12:50:38;100893.22;;;43.45;62.63
21644;BME280;10983;51.982;9.226;2022-08-11T12:53:27;100890.41;;;44.00;61.85
21644;BME280;10983;51.982;9.226;2022-08-11T12:56:02;100868.41;;;45.50;59.68
21644;BME280;10983;51.982;9.226;2022-08-11T12:58:50;100879.97;;;45.92;59.65
21644;BME280;10983;51.982;9.226;2022-08-11T13:01:19;100864.75;;;44.96;58.61
21644;BME280;10983;51.982;9.226;2022-08-11T13:04:05;100884.19;;;43.15;61.84
21644;BME280;10983;51.982;9.226;2022-08-11T13:06:51;100857.31;;;44.58;59.63
21644;BME280;10983;51.982;9.226;2022-08-11T13:09:19;100862.16;;;44.58;60.34
21644;BME280;10983;51.982;9.226;2022-08-11T13:11:47;100844.06;;;46.09;58.92
21644;BME280;10983;51.982;9.226;2022-08-11T13:14:32;100844.34;;;46.48;58.36
21644;BME280;10983;51.982;9.226;2022-08-11T13:17:01;100860.47;;;46.23;57.38
21644;BME280;10983;51.982;9.226;2022-08-11T13:20:11;100841.41;;;45.52;57.80
21644;BME280;10983;51.982;9.226;2022-08-11T13:22:40;100859.38;;;45.02;58.15
21644;BME280;10983;51.982;9.226;2022-08-11T13:25:12;100852.63;;;46.05;57.50
21644;BME280;10983;51.982;9.226;2022-08-11T13:27:42;100851.22;;;46.93;56.52
21644;BME280;10983;51.982;9.226;2022-08-11T13:30:11;100840.66;;;48.48;54.38
21644;BME280;10983;51.982;9.226;2022-08-11T13:33:03;100830.94;;;49.80;52.20
21644;BME280;10983;51.982;9.226;2022-08-11T13:35:32;100849.34;;;46.32;53.70
21644;BME280;10983;51.982;9.226;2022-08-11T13:38:00;100856.59;;;45.14;57.33
21644;BME280;10983;51.982;9.226;2022-08-11T13:40:48;100867.56;;;42.10;60.08
21644;BME280;10983;51.982;9.226;2022-08-11T13:43:22;100842.31;;;45.21;58.44
21644;BME280;10983;51.982;9.226;2022-08-11T13:45:51;100827.88;;;46.59;54.80
21644;BME280;10983;51.982;9.226;2022-08-11T13:48:40;100832.97;;;47.40;54.78
21644;BME280;10983;51.982;9.226;2022-08-11T13:51:09;100838.69;;;45.49;53.76
21644;BME280;10983;51.982;9.226;2022-08-11T13:54:01;100821.06;;;45.73;54.90
21644;BME280;10983;51.982;9.226;2022-08-11T13:56:30;100830.16;;;43.88;56.45
21644;BME280;10983;51.982;9.226;2022-08-11T13:59:00;100826.94;;;44.97;56.82
21644;BME280;10983;51.982;9.226;2022-08-11T14:01:31;100816.44;;;46.29;55.37
21644;BME280;10983;51.982;9.226;2022-08-11T14:04:25;100819.13;;;47.64;54.64
21644;BME280;10983;51.982;9.226;2022-08-11T14:06:59;100809.69;;;47.58;53.66
21644;BME280;10983;51.982;9.226;2022-08-11T14:09:41;100824.81;;;46.07;53.33
21644;BME280;10983;51.982;9.226;2022-08-11T14:12:13;100807.69;;;47.15;54.67
21644;BME280;10983;51.982;9.226;2022-08-11T14:15:15;100806.59;;;47.13;53.16
21644;BME280;10983;51.982;9.226;2022-08-11T14:17:47;100806.06;;;47.27;52.83
21644;BME280;10983;51.982;9.226;2022-08-11T14:20:19;100800.44;;;47.87;51.35
21644;BME280;10983;51.982;9.226;2022-08-11T14:23:05;100798.41;;;46.39;53.34
21644;BME280;10983;51.982;9.226;2022-08-11T14:25:32;100800.41;;;47.78;53.45
21644;BME280;10983;51.982;9.226;2022-08-11T14:28:20;100793.38;;;47.92;52.75
21644;BME280;10983;51.982;9.226;2022-08-11T14:31:02;100806.97;;;47.24;53.24
21644;BME280;10983;51.982;9.226;2022-08-11T14:33:31;100799.84;;;47.62;53.27
21644;BME280;10983;51.982;9.226;2022-08-11T14:36:21;100797.69;;;48.05;51.96
21644;BME280;10983;51.982;9.226;2022-08-11T14:38:50;100796.50;;;47.03;52.48
21644;BME280;10983;51.982;9.226;2022-08-11T14:41:20;100800.47;;;47.36;52.52